Time;durP1;ratioP1;P1;durP2;ratioP2;P2;SDS_P1;SDS_P2;PMS_P1;PMS_P2;Temp;Humidity;BMP_temperature;BMP_pressure;BME280_temperature;BME280_humidity;BME280_pressure;Samples;Min_cycle;Max_cycle;Signal;HPM_P1;HPM_P2
2023/10/17 00:01:51;;;;;;;1.42;1.10;;;7.30;99.90;;;;;;5096920;28;20089;-66
2023/10/17 00:06:43;;;;;;;1.20;1.10;;;7.30;99.90;;;;;;5115241;28;20146;-66
2023/10/17 00:09:09;;;;;;;1.20;1.10;;;7.40;99.90;;;;;;5115190;28;20402;-66
2023/10/17 00:11:58;;;;;;;1.42;1.33;;;7.40;99.90;;;;;;5114823;28;20054;-66
2023/10/17 00:14:34;;;;;;;0.93;0.93;;;7.30;99.90;;;;;;5114698;28;20047;-66
2023/10/17 00:17:02;;;;;;;1.40;1.30;;;7.60;99.90;;;;;;5115050;28;20042;-66
2023/10/17 00:19:31;;;;;;;1.42;1.10;;;7.30;99.90;;;;;;5096434;28;20043;-66
2023/10/17 00:21:59;;;;;;;1.55;1.02;;;7.40;99.90;;;;;;5114172;28;20042;-66
2023/10/17 00:24:25;;;;;;;1.30;1.20;;;7.50;99.90;;;;;;5114845;28;20039;-66
2023/10/17 00:26:51;;;;;;;1.20;1.10;;;7.10;99.90;;;;;;5096584;28;20040;-66
2023/10/17 00:29:17;;;;;;;1.02;0.98;;;7.50;99.90;;;;;;5114741;28;20066;-66
2023/10/17 00:31:46;;;;;;;1.85;1.38;;;7.10;99.90;;;;;;5114769;28;20053;-66
2023/10/17 00:34:16;;;;;;;2.35;1.15;;;7.00;99.90;;;;;;5114563;28;20066;-66
2023/10/17 00:37:00;;;;;;;1.63;1.15;;;7.20;99.90;;;;;;5096653;28;20047;-65
2023/10/17 00:39:32;;;;;;;1.05;0.95;;;7.10;99.90;;;;;;5114298;28;20040;-66
2023/10/17 00:44:36;;;;;;;1.50;1.08;;;6.80;99.90;;;;;;5114318;28;20051;-67
2023/10/17 00:47:03;;;;;;;1.50;1.02;;;6.80;99.90;;;;;;5112926;28;20043;-67
2023/10/17 00:49:33;;;;;;;1.13;1.02;;;7.20;99.90;;;;;;5114392;28;20044;-67
2023/10/17 00:52:03;;;;;;;1.00;0.90;;;6.70;99.90;;;;;;5079588;28;20130;-67
2023/10/17 00:54:32;;;;;;;1.00;0.90;;;6.70;99.90;;;;;;5095771;28;20380;-67
2023/10/17 00:57:00;;;;;;;1.50;0.90;;;6.70;99.90;;;;;;5112699;28;20082;-67
2023/10/17 00:59:29;;;;;;;1.20;0.93;;;6.50;99.90;;;;;;5114172;28;20042;-67
2023/10/17 01:01:56;;;;;;;1.38;1.27;;;6.80;99.90;;;;;;5113908;28;20075;-67
2023/10/17 01:04:24;;;;;;;1.10;1.00;;;6.50;99.90;;;;;;5113974;28;20075;-67
2023/10/17 01:07:05;;;;;;;0.85;0.85;;;7.60;99.90;;;;;;5095917;28;20048;-67
2023/10/17 01:09:34;;;;;;;3.17;0.88;;;6.70;99.90;;;;;;5113768;28;20044;-67
2023/10/17 01:12:10;;;;;;;0.80;0.80;;;6.80;99.90;;;;;;5113967;28;20081;-67
2023/10/17 01:14:40;;;;;;;0.80;0.80;;;6.80;99.90;;;;;;5095678;28;20043;-67
2023/10/17 01:17:08;;;;;;;1.00;0.90;;;6.80;99.90;;;;;;5112352;28;20043;-67
2023/10/17 01:19:35;;;;;;;0.82;0.82;;;6.80;99.90;;;;;;5112638;28;20048;-67
2023/10/17 01:22:01;;;;;;;0.85;0.85;;;6.90;99.90;;;;;;5113884;28;20043;-67
2023/10/17 01:24:27;;;;;;;0.88;0.80;;;6.80;99.90;;;;;;5113471;28;20487;-67
2023/10/17 01:26:52;;;;;;;0.60;0.60;;;6.90;99.90;;;;;;5113494;28;20039;-67
2023/10/17 01:29:18;;;;;;;0.90;0.75;;;6.90;99.90;;;;;;5095253;28;20039;-67
2023/10/17 01:31:44;;;;;;;0.60;0.60;;;6.90;99.90;;;;;;5095204;28;20051;-67
2023/10/17 01:34:11;;;;;;;1.75;1.13;;;6.90;99.90;;;;;;5112734;28;20140;-67
2023/10/17 01:36:40;;;;;;;0.77;0.77;;;7.20;99.90;;;;;;5113639;28;20119;-67
2023/10/17 01:39:06;;;;;;;0.80;0.80;;;7.00;99.90;;;;;;5113586;28;20027;-67
2023/10/17 01:41:32;;;;;;;1.13;0.95;;;6.90;99.90;;;;;;5113591;28;20032;-67
2023/10/17 01:43:58;;;;;;;0.75;0.75;;;6.90;99.90;;;;;;5113343;28;20499;-67
2023/10/17 01:46:28;;;;;;;0.88;0.82;;;6.90;99.90;;;;;;5113590;28;20104;-67
2023/10/17 01:48:55;;;;;;;0.93;0.90;;;7.00;99.90;;;;;;5113587;28;20519;-67
2023/10/17 01:51:23;;;;;;;2.00;1.10;;;6.90;99.90;;;;;;5113244;28;20071;-67
2023/10/17 01:53:50;;;;;;;0.95;0.93;;;6.60;99.90;;;;;;5113172;28;20050;-66
2023/10/17 01:56:26;;;;;;;0.80;0.80;;;6.70;99.90;;;;;;5113431;28;20036;-66
2023/10/17 01:58:55;;;;;;;1.20;0.90;;;6.90;99.90;;;;;;5113498;28;20040;-66
2023/10/17 02:01:31;;;;;;;0.88;0.80;;;6.80;99.90;;;;;;5113445;28;20080;-66
2023/10/17 02:04:03;;;;;;;1.00;0.95;;;6.80;99.90;;;;;;5113416;28;20040;-66
2023/10/17 02:06:33;;;;;;;0.95;0.80;;;6.90;99.90;;;;;;5095253;28;20051;-66
2023/10/17 02:08:59;;;;;;;0.85;0.85;;;6.90;99.90;;;;;;5113385;28;20044;-66
2023/10/17 02:11:43;;;;;;;1.33;1.00;;;6.90;99.90;;;;;;5113341;28;20074;-66
2023/10/17 02:14:09;;;;;;;1.00;0.90;;;6.80;99.90;;;;;;5097932;28;20043;-66
2023/10/17 02:16:35;;;;;;;1.23;1.13;;;6.60;99.90;;;;;;5112973;28;20031;-66
2023/10/17 02:19:07;;;;;;;1.42;1.08;;;6.80;99.90;;;;;;5113002;28;20040;-66
2023/10/17 02:21:38;;;;;;;1.00;1.00;;;6.90;99.90;;;;;;5113221;28;20039;-66
2023/10/17 02:24:07;;;;;;;;;;;6.60;99.90;;;;;;5113308;28;20044;-66
2023/10/17 02:26:42;;;;;;;2.08;1.48;;;6.60;99.90;;;;;;5112883;28;19916;-66
2023/10/17 02:29:11;;;;;;;1.45;1.08;;;6.60;99.90;;;;;;5094642;28;20052;-66
2023/10/17 02:31:45;;;;;;;1.95;1.30;;;6.50;99.90;;;;;;5094624;28;20080;-65
2023/10/17 02:34:10;;;;;;;1.45;1.13;;;6.50;99.90;;;;;;5077725;28;20058;-66
2023/10/17 02:36:36;;;;;;;2.55;0.93;;;6.50;99.90;;;;;;5113097;28;20454;-66
2023/10/17 02:39:04;;;;;;;1.17;1.00;;;6.50;99.90;;;;;;5078307;28;20101;-66
2023/10/17 02:41:31;;;;;;;3.00;1.48;;;6.50;99.90;;;;;;5113049;28;20470;-66
2023/10/17 02:43:57;;;;;;;1.15;0.90;;;6.50;99.90;;;;;;5094516;28;20395;-66
2023/10/17 02:46:27;;;;;;;0.98;0.95;;;6.50;99.90;;;;;;5097595;28;20039;-66
2023/10/17 02:48:54;;;;;;;1.45;1.20;;;6.40;99.90;;;;;;5116808;28;20043;-66
2023/10/17 02:53:52;;;;;;;1.80;1.38;;;6.40;99.90;;;;;;5116266;28;20047;-66
2023/10/17 02:56:21;;;;;;;1.50;1.33;;;6.40;99.90;;;;;;5116543;28;20036;-65
2023/10/17 02:58:51;;;;;;;0.90;0.90;;;6.40;99.90;;;;;;5116520;28;20036;-66
2023/10/17 03:01:17;;;;;;;2.03;1.08;;;6.40;99.90;;;;;;5116489;28;20039;-66
2023/10/17 03:03:43;;;;;;;1.13;1.02;;;6.80;99.90;;;;;;5116552;28;20036;-65
2023/10/17 03:06:09;;;;;;;1.00;0.90;;;6.40;99.90;;;;;;5116001;28;20056;-66
2023/10/17 03:08:37;;;;;;;1.25;1.10;;;6.40;99.90;;;;;;5098145;28;20103;-66
2023/10/17 03:11:08;;;;;;;1.30;1.20;;;6.40;99.90;;;;;;5097839;28;20047;-66
2023/10/17 03:13:40;;;;;;;1.10;0.98;;;6.40;99.90;;;;;;5097705;28;20123;-66
2023/10/17 03:16:17;;;;;;;0.85;0.85;;;6.40;99.90;;;;;;5116199;28;20083;-66
2023/10/17 03:18:48;;;;;;;1.00;0.95;;;6.40;99.90;;;;;;5116173;28;20050;-66
2023/10/17 03:21:18;;;;;;;1.25;1.08;;;6.50;99.90;;;;;;5080716;28;20035;-66
2023/10/17 03:23:49;;;;;;;1.10;1.00;;;6.50;99.90;;;;;;5116157;28;20078;-66
2023/10/17 03:26:17;;;;;;;1.13;1.00;;;6.50;99.90;;;;;;5097451;28;20043;-66
2023/10/17 03:28:45;;;;;;;2.58;1.50;;;6.30;99.90;;;;;;5097502;28;20051;-65
2023/10/17 03:31:19;;;;;;;1.20;1.10;;;6.50;99.90;;;;;;5115617;28;20043;-66
2023/10/17 03:33:50;;;;;;;1.20;0.95;;;6.60;99.90;;;;;;5097229;28;20055;-66
2023/10/17 03:36:41;;;;;;;1.00;1.00;;;6.60;99.90;;;;;;5115566;28;20391;-66
2023/10/17 03:39:26;;;;;;;1.25;1.15;;;6.50;99.90;;;;;;5115458;28;20046;-66
2023/10/17 03:41:58;;;;;;;1.40;1.30;;;6.60;99.90;;;;;;5097432;28;20088;-66
2023/10/17 03:44:30;;;;;;;1.17;1.15;;;6.60;99.90;;;;;;5115698;28;20048;-66
2023/10/17 03:46:59;;;;;;;1.55;1.10;;;6.70;99.90;;;;;;5115655;28;20042;-66
2023/10/17 03:49:36;;;;;;;1.30;1.20;;;7.20;99.90;;;;;;5115585;28;20046;-66
2023/10/17 03:52:04;;;;;;;1.27;1.17;;;6.70;99.90;;;;;;5115267;28;20085;-66
2023/10/17 03:54:30;;;;;;;1.33;0.88;;;6.70;99.90;;;;;;5097168;28;20399;-66
2023/10/17 03:57:04;;;;;;;1.55;1.38;;;6.70;99.90;;;;;;5114538;28;20036;-66
2023/10/17 03:59:39;;;;;;;1.10;1.00;;;6.80;99.90;;;;;;5096891;28;20048;-66
2023/10/17 04:02:06;;;;;;;1.08;1.02;;;6.80;99.90;;;;;;5097002;28;20173;-66
2023/10/17 04:04:45;;;;;;;1.48;1.20;;;6.90;99.90;;;;;;5115045;28;20086;-66
2023/10/17 04:07:12;;;;;;;1.40;1.30;;;6.90;99.90;;;;;;5079714;28;20048;-66
2023/10/17 04:09:52;;;;;;;1.85;1.10;;;6.90;99.90;;;;;;5096630;28;20035;-66
2023/10/17 04:12:23;;;;;;;1.70;1.40;;;6.90;99.90;;;;;;5096566;28;20047;-66
2023/10/17 04:14:58;;;;;;;1.13;1.10;;;6.90;99.90;;;;;;5096661;28;20426;-70
2023/10/17 04:17:29;;;;;;;2.00;1.33;;;6.80;99.90;;;;;;5113422;28;20457;-68
2023/10/17 04:19:59;;;;;;;1.42;1.33;;;7.00;99.90;;;;;;5114769;28;20040;-66
2023/10/17 04:22:29;;;;;;;1.58;1.10;;;7.00;99.90;;;;;;5096607;28;20094;-66
2023/10/17 04:25:00;;;;;;;2.35;1.40;;;7.00;99.90;;;;;;5114577;28;20035;-66
2023/10/17 04:27:31;;;;;;;1.27;1.17;;;7.10;99.90;;;;;;5080450;28;20160;-66
2023/10/17 04:29:58;;;;;;;1.42;1.30;;;7.10;99.90;;;;;;5114824;28;20042;-67
2023/10/17 04:32:33;;;;;;;1.48;1.38;;;7.10;99.90;;;;;;5096418;28;20075;-71
2023/10/17 04:35:02;;;;;;;1.10;1.05;;;7.10;99.90;;;;;;5096289;28;20044;-68
2023/10/17 04:37:34;;;;;;;1.35;1.23;;;7.20;99.90;;;;;;5096193;28;20059;-68
2023/10/17 04:40:28;;;;;;;2.03;1.50;;;7.20;99.90;;;;;;5114596;28;20046;-66
2023/10/17 04:45:19;;;;;;;1.58;1.45;;;7.30;99.90;;;;;;5114156;28;20051;-70
2023/10/17 04:47:46;;;;;;;1.48;1.23;;;7.30;99.90;;;;;;5095874;28;20066;-70
2023/10/17 04:50:12;;;;;;;1.50;1.25;;;7.30;99.90;;;;;;5114051;28;20369;-66
2023/10/17 04:52:41;;;;;;;1.30;1.20;;;7.40;99.90;;;;;;5113963;28;20103;-66
2023/10/17 04:55:30;;;;;;;1.20;1.10;;;7.40;99.90;;;;;;5114009;28;20044;-65
2023/10/17 05:03:32;;;;;;;1.33;1.20;;;7.50;99.90;;;;;;5089697;28;20047;-65
2023/10/17 05:09:00;;;;;;;1.30;1.20;;;7.60;99.90;;;;;;5113991;28;20079;-66
2023/10/17 06:17:21;;;;;;;1.30;1.20;;;7.70;99.90;;;;;;5113258;28;20039;-66
2023/10/17 06:19:48;;;;;;;1.65;1.10;;;7.70;99.90;;;;;;5095140;28;20445;-66
2023/10/17 06:35:31;;;;;;;1.90;1.10;;;7.70;99.90;;;;;;5117072;28;20126;-64
2023/10/17 06:38:00;;;;;;;1.58;1.15;;;7.80;99.90;;;;;;5116912;28;20394;-70
2023/10/17 06:40:30;;;;;;;0.90;0.90;;;7.80;99.90;;;;;;5098383;28;20415;-66
2023/10/17 06:43:13;;;;;;;1.67;1.50;;;7.80;99.90;;;;;;5116887;28;20032;-66
2023/10/17 06:45:54;;;;;;;0.98;0.90;;;7.90;99.90;;;;;;5115615;28;20380;-66
2023/10/17 06:48:31;;;;;;;1.40;1.30;;;7.80;99.90;;;;;;5116688;28;20039;-66
2023/10/17 06:51:29;;;;;;;1.30;1.20;;;7.90;99.90;;;;;;5098531;28;20039;-66
2023/10/17 06:53:48;;;;;;;1.20;1.10;;;7.90;99.90;;;;;;5116102;28;20504;-66
2023/10/17 06:56:15;;;;;;;0.90;0.90;;;8.00;99.90;;;;;;5098082;28;20071;-66
2023/10/17 06:58:41;;;;;;;1.45;1.35;;;8.30;99.90;;;;;;5116616;28;20031;-66
2023/10/17 07:01:19;;;;;;;1.30;1.20;;;8.00;99.90;;;;;;5116161;28;20104;-66
2023/10/17 07:03:45;;;;;;;1.20;1.10;;;8.10;99.90;;;;;;5116478;28;20174;-66
2023/10/17 07:06:11;;;;;;;1.20;1.10;;;8.00;99.90;;;;;;5116008;28;20461;-66
2023/10/17 07:08:37;;;;;;;4.80;1.20;;;8.30;99.90;;;;;;5116090;28;20043;-66
2023/10/17 07:11:09;;;;;;;1.33;1.20;;;8.10;99.90;;;;;;5116337;28;20403;-66
2023/10/17 07:14:10;;;;;;;1.30;1.20;;;8.20;99.90;;;;;;5097684;28;20043;-66
2023/10/17 07:19:46;;;;;;;1.70;1.10;;;8.30;99.90;;;;;;5116165;28;20086;-67
2023/10/17 07:24:25;;;;;;;1.30;1.10;;;8.40;99.90;;;;;;5116021;28;20047;-67
2023/10/17 07:26:55;;;;;;;1.55;1.30;;;8.40;99.90;;;;;;5115714;28;20043;-67
2023/10/17 07:29:25;;;;;;;1.10;1.00;;;8.50;99.90;;;;;;5097335;28;20067;-67
2023/10/17 07:31:54;;;;;;;1.40;1.30;;;8.50;99.90;;;;;;5114551;28;20039;-67
2023/10/17 07:34:22;;;;;;;1.42;1.13;;;8.80;99.90;;;;;;5115643;28;20134;-67
2023/10/17 07:36:51;;;;;;;1.20;1.10;;;8.60;99.90;;;;;;5115679;28;20051;-67
2023/10/17 07:39:29;;;;;;;1.33;1.23;;;8.70;99.90;;;;;;5115288;28;20039;-67
2023/10/17 07:41:55;;;;;;;1.08;1.02;;;8.70;99.90;;;;;;5115561;28;20040;-67
2023/10/17 07:44:26;;;;;;;1.20;1.10;;;8.70;99.90;;;;;;5097084;28;20043;-67
2023/10/17 07:49:36;;;;;;;1.35;1.15;;;8.90;99.90;;;;;;5115578;28;20055;-67
2023/10/17 07:52:15;;;;;;;1.38;1.20;;;9.00;99.90;;;;;;5115571;28;20360;-67
2023/10/17 07:55:17;;;;;;;1.00;0.95;;;9.10;99.90;;;;;;5115417;28;20042;-67
2023/10/17 07:57:44;;;;;;;1.15;1.05;;;9.20;99.90;;;;;;5115080;28;20044;-67
2023/10/17 08:03:00;;;;;;;1.40;1.30;;;9.30;99.90;;;;;;5115300;28;20127;-67
2023/10/17 08:05:36;;;;;;;1.40;1.30;;;9.30;99.90;;;;;;5114847;28;20047;-67
2023/10/17 08:08:12;;;;;;;1.92;1.60;;;9.30;99.90;;;;;;5114921;28;20036;-67
2023/10/17 08:10:39;;;;;;;2.22;1.40;;;9.40;99.90;;;;;;5114881;28;20036;-67
2023/10/17 08:13:07;;;;;;;3.00;1.50;;;9.50;99.90;;;;;;5096465;28;20047;-67
2023/10/17 08:15:38;;;;;;;1.85;1.50;;;9.50;99.90;;;;;;5115048;28;20039;-67
2023/10/17 08:18:14;;;;;;;1.55;1.42;;;10.20;99.90;;;;;;5096550;28;20380;-67
2023/10/17 08:20:54;;;;;;;2.85;1.77;;;9.60;99.90;;;;;;5096628;28;20053;-67
2023/10/17 08:23:20;;;;;;;1.88;1.20;;;9.60;99.90;;;;;;5114609;28;20043;-67
2023/10/17 08:25:56;;;;;;;1.90;1.10;;;9.60;99.90;;;;;;5114906;28;20040;-66
2023/10/17 08:28:46;;;;;;;1.63;1.23;;;9.60;99.90;;;;;;5113289;28;20090;-66
2023/10/17 08:34:41;;;;;;;1.80;1.20;;;9.60;99.90;;;;;;5114675;28;20050;-66
2023/10/17 08:36:46;;;;;;;1.45;1.35;;;9.70;99.90;;;;;;5103334;28;20407;-66
2023/10/17 08:41:57;;;;;;;1.15;1.00;;;9.70;99.90;;;;;;5114250;28;20163;-66
2023/10/17 08:44:29;;;;;;;1.20;1.10;;;9.70;99.90;;;;;;5113887;28;20070;-66
2023/10/17 08:46:56;;;;;;;1.20;1.10;;;9.70;99.90;;;;;;5114438;28;20039;-66
2023/10/17 08:49:22;;;;;;;1.65;1.20;;;9.70;99.90;;;;;;5096398;28;20544;-66
2023/10/17 08:51:49;;;;;;;1.50;1.10;;;9.70;99.90;;;;;;5114104;28;20047;-66
2023/10/17 08:54:18;;;;;;;1.30;1.20;;;9.70;99.90;;;;;;5114264;28;20126;-66
2023/10/17 08:56:45;;;;;;;1.00;1.00;;;9.70;99.90;;;;;;5114435;28;20170;-66
2023/10/17 08:59:11;;;;;;;0.98;0.80;;;10.40;99.90;;;;;;5114223;28;20042;-66
2023/10/17 09:01:37;;;;;;;1.23;1.10;;;9.70;99.90;;;;;;5113862;28;20039;-66
2023/10/17 09:04:04;;;;;;;1.15;0.95;;;9.80;99.90;;;;;;5113967;28;20035;-66
2023/10/17 09:06:37;;;;;;;1.65;1.10;;;9.70;99.90;;;;;;5114146;28;20443;-66
2023/10/17 09:09:17;;;;;;;1.27;1.17;;;9.80;99.90;;;;;;5114031;28;20514;-66
2023/10/17 09:12:01;;;;;;;1.38;1.00;;;9.80;99.90;;;;;;5114003;28;20122;-66
2023/10/17 09:14:35;;;;;;;0.88;0.88;;;10.30;99.90;;;;;;5113888;28;20118;-66
2023/10/17 09:17:11;;;;;;;1.42;1.02;;;9.90;99.90;;;;;;5095447;28;20036;-66
2023/10/17 09:19:47;;;;;;;1.00;1.00;;;9.90;99.90;;;;;;5113878;28;20433;-66
2023/10/17 09:22:17;;;;;;;1.20;0.88;;;10.00;99.90;;;;;;5113802;28;20494;-66
2023/10/17 09:24:49;;;;;;;0.90;0.80;;;10.00;99.90;;;;;;5095620;28;20050;-66
2023/10/17 09:27:17;;;;;;;1.17;0.85;;;10.10;99.90;;;;;;5113849;28;20262;-66
2023/10/17 09:29:44;;;;;;;0.60;0.60;;;10.10;99.90;;;;;;5113829;28;20039;-66
2023/10/17 09:32:10;;;;;;;1.15;0.95;;;10.10;99.90;;;;;;5113437;28;20483;-66
2023/10/17 09:34:38;;;;;;;1.13;0.75;;;10.10;99.90;;;;;;5113573;28;20040;-66
2023/10/17 09:37:05;;;;;;;1.02;0.80;;;10.10;99.90;;;;;;5095465;28;20050;-66
2023/10/17 09:39:39;;;;;;;0.68;0.68;;;10.10;99.90;;;;;;5112405;28;20126;-66
2023/10/17 09:42:05;;;;;;;1.50;0.70;;;10.10;99.90;;;;;;5113647;28;20085;-66
2023/10/17 09:44:32;;;;;;;0.73;0.70;;;10.10;99.90;;;;;;5095025;28;20039;-66
2023/10/17 09:47:06;;;;;;;0.60;0.60;;;10.10;99.90;;;;;;5094885;28;20086;-66
2023/10/17 09:49:54;;;;;;;0.93;0.80;;;10.10;99.90;;;;;;5095238;28;20040;-66
2023/10/17 09:52:19;;;;;;;1.50;1.05;;;10.20;99.90;;;;;;5112933;28;20379;-66
2023/10/17 09:54:51;;;;;;;0.90;0.90;;;10.50;99.90;;;;;;5113407;28;20084;-66
2023/10/17 09:57:20;;;;;;;1.05;0.88;;;10.30;99.90;;;;;;5117563;28;20157;-66
2023/10/17 10:00:14;;;;;;;0.80;0.80;;;10.30;99.90;;;;;;5099107;28;20201;-66
2023/10/17 10:02:43;;;;;;;3.15;1.00;;;10.40;99.90;;;;;;5117473;28;20084;-66
2023/10/17 10:05:42;;;;;;;0.73;0.70;;;10.40;99.90;;;;;;5117143;28;20112;-66
2023/10/17 10:08:34;;;;;;;1.20;0.85;;;10.50;99.90;;;;;;5097593;28;20123;-67
2023/10/17 10:11:05;;;;;;;0.60;0.60;;;10.60;99.90;;;;;;5117366;28;20031;-67
2023/10/17 10:14:04;;;;;;;0.57;0.57;;;10.60;99.90;;;;;;5098742;28;20096;-67
2023/10/17 10:17:05;;;;;;;0.55;0.55;;;10.60;99.90;;;;;;5098770;28;20035;-67
2023/10/17 10:19:40;;;;;;;;;;;10.60;93.10;;;;;;5054504;28;20029;-67
2023/10/17 10:22:07;;;;;;;0.70;0.70;;;10.70;96.30;;;;;;5107903;28;20375;-67
2023/10/17 10:24:36;;;;;;;0.60;0.60;;;10.80;98.60;;;;;;5116865;28;20167;-67
2023/10/17 10:29:43;;;;;;;0.60;0.60;;;10.80;91.10;;;;;;5098523;28;20055;-67
2023/10/17 10:32:35;;;;;;;2.05;0.90;;;10.80;94.40;;;;;;5116972;28;20066;-67
2023/10/17 10:35:07;;;;;;;0.88;0.70;;;10.90;61.10;;;;;;5116807;28;20036;-66
2023/10/17 10:37:52;;;;;;;0.50;0.50;;;10.90;88.20;;;;;;5116985;28;20039;-65
2023/10/17 10:40:22;;;;;;;0.68;0.68;;;11.00;95.20;;;;;;5116733;28;20122;-65
2023/10/17 10:42:52;;;;;;;1.17;0.80;;;11.00;90.00;;;;;;5116621;28;20046;-65
2023/10/17 10:45:26;;;;;;;0.70;0.70;;;11.10;95.20;;;;;;5098522;28;20046;-65
2023/10/17 10:47:58;;;;;;;0.95;0.75;;;11.10;74.50;;;;;;5116484;28;20084;-65
2023/10/17 10:50:29;;;;;;;1.75;0.70;;;11.50;91.50;;;;;;5116685;28;20032;-65
2023/10/17 10:52:56;;;;;;;0.98;0.82;;;11.10;84.00;;;;;;5116331;28;20079;-65
2023/10/17 10:55:24;;;;;;;0.52;0.52;;;11.20;90.80;;;;;;5116658;28;20054;-66
2023/10/17 10:57:51;;;;;;;0.98;0.90;;;11.80;94.20;;;;;;5116345;28;20046;-65
2023/10/17 11:00:17;;;;;;;0.63;0.63;;;11.80;90.90;;;;;;5116555;28;20403;-65
2023/10/17 11:02:43;;;;;;;0.50;0.50;;;11.60;92.00;;;;;;5116543;28;20546;-65
2023/10/17 11:05:10;;;;;;;0.57;0.57;;;11.40;83.40;;;;;;5116186;28;20144;-65
2023/10/17 11:07:36;;;;;;;1.13;0.80;;;11.40;84.20;;;;;;5116129;28;20043;-65
2023/10/17 11:10:10;;;;;;;0.88;0.75;;;11.50;76.60;;;;;;5116091;28;20403;-65
2023/10/17 11:12:40;;;;;;;1.55;0.70;;;11.50;71.80;;;;;;5115966;28;20031;-65
2023/10/17 11:15:14;;;;;;;1.15;0.80;;;11.50;85.70;;;;;;5115953;28;20035;-65
2023/10/17 11:17:41;;;;;;;0.65;0.65;;;11.50;78.40;;;;;;5116308;28;20039;-65
2023/10/17 11:20:14;;;;;;;0.90;0.55;;;11.60;76.10;;;;;;5116210;28;20092;-66
2023/10/17 11:22:41;;;;;;;0.98;0.88;;;11.60;79.60;;;;;;5115835;28;20075;-65
2023/10/17 11:25:13;;;;;;;0.60;0.60;;;11.60;70.10;;;;;;5116046;28;20036;-65
2023/10/17 11:27:49;;;;;;;1.13;0.50;;;11.60;53.00;;;;;;5097853;28;20039;-65
2023/10/17 11:30:19;;;;;;;1.88;0.80;;;11.70;67.10;;;;;;5097588;28;20058;-65
2023/10/17 11:32:45;;;;;;;0.63;0.50;;;11.60;38.70;;;;;;5115908;28;20421;-65
2023/10/17 11:35:19;;;;;;;0.75;0.55;;;11.60;42.40;;;;;;5097717;28;20046;-65
2023/10/17 11:37:47;;;;;;;1.52;0.70;;;11.70;58.30;;;;;;5115857;28;20031;-65
2023/10/17 11:40:37;;;;;;;1.58;0.68;;;11.80;58.80;;;;;;5097564;28;20104;-65
2023/10/17 11:43:15;;;;;;;0.70;0.55;;;11.80;32.90;;;;;;5097279;28;20050;-65
2023/10/17 11:45:41;;;;;;;0.60;0.60;;;12.10;40.60;;;;;;5115714;28;20193;-65
2023/10/17 11:48:45;;;;;;;0.50;0.50;;;11.90;65.60;;;;;;5115727;28;20063;-66
2023/10/17 11:51:13;;;;;;;0.70;0.70;;;12.40;52.70;;;;;;5052505;28;20041;-65
2023/10/17 11:54:08;;;;;;;1.13;0.57;;;11.90;46.70;;;;;;5104702;28;20487;-65
2023/10/17 11:56:39;;;;;;;0.47;0.47;;;12.00;33.10;;;;;;5113540;28;20054;-65
2023/10/17 11:59:10;;;;;;;0.60;0.60;;;12.30;59.40;;;;;;5115158;28;20539;-65
2023/10/17 12:01:36;;;;;;;0.70;0.50;;;11.90;27.80;;;;;;5115112;28;20118;-65
2023/10/17 12:04:06;;;;;;;0.50;0.50;;;11.90;99.90;;;;;;5097041;28;20050;-65
2023/10/17 12:06:35;;;;;;;0.73;0.47;;;11.90;27.00;;;;;;5096691;28;20126;-66
2023/10/17 12:09:17;;;;;;;0.57;0.57;;;12.00;99.90;;;;;;5115271;28;20399;-65
2023/10/17 12:11:54;;;;;;;0.60;0.60;;;12.00;3.90;;;;;;5115315;28;20082;-65
2023/10/17 12:14:21;;;;;;;2.13;0.80;;;12.40;1.00;;;;;;5114784;28;20035;-66
2023/10/17 12:16:54;;;;;;;1.20;0.80;;;12.20;99.90;;;;;;5096563;28;20040;-66
2023/10/17 12:19:20;;;;;;;0.60;0.60;;;12.30;99.90;;;;;;5114287;28;20101;-66
2023/10/17 12:21:50;;;;;;;0.50;0.50;;;12.50;1.00;;;;;;5096770;28;20114;-66
2023/10/17 12:24:28;;;;;;;0.40;0.40;;;12.60;99.90;;;;;;5096383;28;20039;-66
2023/10/17 12:26:55;;;;;;;0.47;0.47;;;12.60;99.90;;;;;;5096825;28;20104;-67
2023/10/17 12:29:25;;;;;;;0.45;0.43;;;12.40;99.90;;;;;;5096696;28;20511;-67
2023/10/17 12:31:53;;;;;;;0.40;0.40;;;12.30;1.00;;;;;;5114892;28;20050;-67
2023/10/17 12:34:19;;;;;;;0.52;0.52;;;12.10;99.90;;;;;;5114671;28;20066;-68
2023/10/17 12:36:46;;;;;;;0.65;0.60;;;12.00;99.90;;;;;;5096465;28;20032;-67
2023/10/17 12:39:12;;;;;;;2.58;0.60;;;11.90;1.00;;;;;;5114633;28;20035;-67
2023/10/17 12:41:39;;;;;;;0.82;0.70;;;11.90;1.00;;;;;;5114307;28;20031;-67
2023/10/17 12:44:05;;;;;;;0.80;0.63;;;11.80;94.30;;;;;;5114217;28;20054;-67
2023/10/17 12:46:31;;;;;;;2.58;0.70;;;11.70;99.90;;;;;;5114503;28;20031;-67
2023/10/17 12:48:57;;;;;;;0.90;0.80;;;11.60;1.00;;;;;;5096223;28;20513;-67
2023/10/17 12:51:27;;;;;;;1.58;0.60;;;11.60;99.90;;;;;;5114167;28;20047;-67
2023/10/17 12:53:54;;;;;;;1.35;0.57;;;11.50;99.90;;;;;;5114000;28;20050;-67
2023/10/17 12:56:20;;;;;;;0.50;0.50;;;11.50;99.90;;;;;;5095828;28;20035;-67
2023/10/17 12:58:46;;;;;;;0.50;0.50;;;11.50;26.90;;;;;;5114080;28;20050;-66
2023/10/17 13:01:12;;;;;;;0.43;0.40;;;11.50;1.00;;;;;;5114227;28;20071;-66
2023/10/17 13:03:38;;;;;;;0.77;0.50;;;11.50;92.80;;;;;;5114173;28;20063;-66
2023/10/17 13:06:05;;;;;;;0.50;0.50;;;12.00;99.90;;;;;;5095585;28;20059;-66
2023/10/17 13:08:31;;;;;;;0.60;0.60;;;11.40;99.90;;;;;;5114101;28;20047;-65
2023/10/17 13:10:57;;;;;;;1.20;0.70;;;11.40;1.00;;;;;;5113847;28;20032;-65
2023/10/17 13:13:23;;;;;;;0.43;0.40;;;11.40;99.90;;;;;;5113983;28;20482;-65
2023/10/17 13:15:49;;;;;;;0.80;0.77;;;11.40;1.00;;;;;;5114081;28;20471;-65
2023/10/17 13:18:16;;;;;;;0.75;0.70;;;11.40;1.00;;;;;;5114000;28;20118;-65
2023/10/17 13:20:54;;;;;;;0.50;0.50;;;11.30;99.90;;;;;;5095748;28;20040;-65
2023/10/17 13:23:20;;;;;;;0.50;0.50;;;12.20;99.90;;;;;;5113928;28;20166;-65
2023/10/17 13:25:46;;;;;;;0.82;0.50;;;11.60;99.90;;;;;;5113867;28;20538;-65
2023/10/17 13:28:12;;;;;;;1.00;0.40;;;12.20;99.90;;;;;;5113846;28;20040;-65
2023/10/17 13:30:38;;;;;;;0.63;0.63;;;11.40;99.90;;;;;;5095165;28;20044;-65
2023/10/17 13:33:06;;;;;;;0.65;0.60;;;11.10;99.90;;;;;;5113656;28;20367;-65
2023/10/17 13:35:37;;;;;;;1.45;0.85;;;11.30;99.90;;;;;;5113453;28;20036;-65
2023/10/17 13:38:03;;;;;;;1.48;0.77;;;11.30;99.90;;;;;;5113859;28;20043;-67
2023/10/17 13:40:32;;;;;;;0.65;0.65;;;11.30;99.90;;;;;;5113585;28;20047;-66
2023/10/17 13:42:58;;;;;;;1.05;0.73;;;11.30;1.00;;;;;;5113625;28;20051;-67
2023/10/17 13:45:24;;;;;;;0.70;0.70;;;11.30;99.90;;;;;;5113271;28;20036;-67
2023/10/17 13:47:52;;;;;;;0.50;0.50;;;11.30;1.00;;;;;;5095337;28;20038;-67
2023/10/17 13:50:21;;;;;;;0.80;0.65;;;11.20;1.00;;;;;;5113276;28;20458;-67
2023/10/17 13:52:48;;;;;;;0.77;0.65;;;11.70;99.90;;;;;;5113546;28;20035;-67
2023/10/17 13:55:24;;;;;;;0.75;0.75;;;11.20;99.90;;;;;;5113365;28;20047;-67
2023/10/17 13:57:50;;;;;;;1.60;0.60;;;11.20;99.90;;;;;;5113181;28;20042;-67
2023/10/17 14:00:19;;;;;;;0.60;0.60;;;11.60;99.90;;;;;;5113458;28;20103;-67
2023/10/17 14:02:49;;;;;;;0.60;0.60;;;11.20;99.90;;;;;;5113477;28;20082;-67
2023/10/17 14:05:16;;;;;;;1.43;0.70;;;11.20;99.90;;;;;;5112939;28;20104;-67
2023/10/17 14:07:43;;;;;;;0.45;0.45;;;11.20;1.00;;;;;;5095248;28;20818;-67
2023/10/17 14:10:11;;;;;;;0.52;0.52;;;11.10;99.90;;;;;;5113295;28;20040;-67
2023/10/17 14:12:40;;;;;;;0.50;0.50;;;11.10;99.90;;;;;;5113066;28;20110;-67
2023/10/17 14:15:07;;;;;;;1.77;0.70;;;11.00;99.90;;;;;;5113200;28;20086;-67
2023/10/17 14:17:33;;;;;;;0.65;0.65;;;11.10;1.00;;;;;;5113350;28;20043;-67
2023/10/17 14:20:05;;;;;;;0.57;0.55;;;11.10;18.50;;;;;;5113274;28;20032;-67
2023/10/17 14:22:38;;;;;;;0.43;0.43;;;11.10;99.90;;;;;;5113276;28;20507;-67
2023/10/17 14:25:08;;;;;;;0.80;0.60;;;11.10;99.90;;;;;;5095875;28;20115;-67
2023/10/17 14:27:34;;;;;;;0.90;0.60;;;11.10;1.00;;;;;;5113225;28;20449;-67
2023/10/17 14:30:00;;;;;;;0.63;0.60;;;11.10;52.80;;;;;;5112871;28;20118;-67
2023/10/17 14:32:27;;;;;;;0.50;0.50;;;11.00;99.90;;;;;;5113140;28;20050;-67
2023/10/17 14:34:54;;;;;;;1.40;1.02;;;11.10;99.90;;;;;;5111592;28;20043;-67
2023/10/17 14:37:23;;;;;;;0.50;0.50;;;11.00;99.90;;;;;;5113113;28;20040;-67
2023/10/17 14:39:52;;;;;;;0.52;0.50;;;11.00;99.90;;;;;;5113101;28;20116;-67
2023/10/17 14:42:18;;;;;;;0.80;0.60;;;11.00;99.90;;;;;;5116016;28;20059;-67
2023/10/17 14:44:52;;;;;;;2.30;1.13;;;11.50;99.90;;;;;;5116832;28;20050;-67
2023/10/17 14:47:18;;;;;;;0.52;0.50;;;10.90;44.00;;;;;;5116602;28;20413;-67
2023/10/17 14:49:48;;;;;;;0.50;0.50;;;10.90;99.90;;;;;;5116643;28;20039;-65
2023/10/17 14:52:14;;;;;;;1.20;0.57;;;10.90;99.90;;;;;;5116521;28;20039;-65
2023/10/17 14:54:41;;;;;;;0.65;0.60;;;10.80;99.90;;;;;;5116373;28;20079;-65
2023/10/17 14:57:09;;;;;;;0.57;0.57;;;10.80;99.90;;;;;;5116379;28;20040;-65
2023/10/17 14:59:38;;;;;;;0.80;0.60;;;10.80;99.90;;;;;;5081757;28;20460;-65
2023/10/17 15:02:05;;;;;;;0.50;0.50;;;10.80;95.20;;;;;;5116339;28;20490;-66
2023/10/17 15:04:31;;;;;;;0.60;0.60;;;10.90;99.90;;;;;;5098103;28;20058;-65
2023/10/17 15:06:57;;;;;;;2.20;0.60;;;10.70;99.90;;;;;;5097906;28;20406;-66
2023/10/17 15:09:24;;;;;;;0.98;0.80;;;10.70;1.00;;;;;;5098216;28;20048;-65